Time;durP1;ratioP1;P1;durP2;ratioP2;P2;SDS_P1;SDS_P2;PMS_P1;PMS_P2;Temp;Humidity;BMP_temperature;BMP_pressure;BME280_temperature;BME280_humidity;BME280_pressure;Samples;Min_cycle;Max_cycle;Signal;HPM_P1;HPM_P2
2022/03/26 00:00:30;;;;;;;;;53.25;44.00;;;;;16.31;33.54;102137.34;2104121;28;47668;-62
2022/03/26 00:01:31;;;;;;;;;54.25;43.50;;;;;16.29;34.09;102140.06;2103957;28;47516;-62
2022/03/26 00:02:32;;;;;;;;;53.75;44.25;;;;;16.28;33.68;102135.63;2094358;28;47560;-60
2022/03/26 00:03:32;;;;;;;;;52.00;41.80;;;;;16.27;33.61;102138.34;2085912;28;47677;-58
2022/03/26 00:04:32;;;;;;;;;50.00;41.50;;;;;16.25;33.87;102138.34;2094864;28;47514;-62
2022/03/26 00:05:34;;;;;;;;;51.50;42.25;;;;;16.24;33.98;102139.25;2104165;28;47282;-60
2022/03/26 00:06:34;;;;;;;;;51.00;42.60;;;;;16.24;33.82;102138.38;2103448;28;47786;-61
2022/03/26 00:07:35;;;;;;;;;50.50;42.50;;;;;16.22;34.21;102138.41;2094858;28;47812;-62
2022/03/26 00:08:35;;;;;;;;;57.75;44.75;;;;;16.22;34.02;102140.22;2095067;28;47461;-60
2022/03/26 00:09:35;;;;;;;;;50.00;41.50;;;;;16.20;34.15;102134.91;2103050;27;47507;-61
2022/03/26 00:10:36;;;;;;;;;54.50;43.75;;;;;16.19;33.79;102143.84;2103701;28;47850;-61
2022/03/26 00:11:37;;;;;;;;;55.00;44.00;;;;;16.19;34.32;102138.50;2103640;28;47973;-63
2022/03/26 00:12:39;;;;;;;;;53.50;44.75;;;;;16.19;34.39;102138.50;2104191;28;47853;-60
2022/03/26 00:13:39;;;;;;;;;51.80;42.60;;;;;16.17;34.26;102140.31;2103722;28;47778;-62
2022/03/26 00:14:39;;;;;;;;;54.00;44.25;;;;;16.18;34.23;102139.41;2103640;28;47728;-62
2022/03/26 00:15:40;;;;;;;;;51.25;43.25;;;;;16.16;33.94;102130.53;2104096;28;48100;-62
2022/03/26 00:16:40;;;;;;;;;56.75;45.25;;;;;16.16;34.46;102139.44;2103791;28;47583;-62
2022/03/26 00:17:41;;;;;;;;;51.25;42.00;;;;;16.15;34.51;102135.00;2103738;28;48439;-62
2022/03/26 00:18:41;;;;;;;;;53.75;43.50;;;;;16.14;34.00;102132.38;2094708;28;47277;-61
2022/03/26 00:19:42;;;;;;;;;53.00;43.75;;;;;16.15;34.56;102131.44;2094411;28;47474;-60
2022/03/26 00:20:42;;;;;;;;;53.50;41.75;;;;;16.13;33.95;102131.50;2103943;28;47109;-59
2022/03/26 00:21:43;;;;;;;;;54.25;43.75;;;;;16.13;34.32;102133.25;2103530;28;47592;-62
2022/03/26 00:22:43;;;;;;;;;52.50;42.75;;;;;16.12;34.29;102135.06;2103894;28;47532;-60
2022/03/26 00:23:43;;;;;;;;;56.50;44.50;;;;;16.11;34.37;102137.78;2103506;28;45961;-62
2022/03/26 00:24:44;;;;;;;;;54.25;43.75;;;;;16.09;34.23;102127.09;2103832;28;47126;-60
2022/03/26 00:25:44;;;;;;;;;54.25;44.50;;;;;16.08;34.37;102136.03;2094903;28;47699;-61
2022/03/26 00:26:45;;;;;;;;;56.25;45.75;;;;;16.08;34.53;102137.84;2094885;28;47387;-60
2022/03/26 00:27:45;;;;;;;;;56.25;45.25;;;;;16.05;34.13;102133.44;2103520;28;47853;-61
2022/03/26 00:28:46;;;;;;;;;53.25;43.50;;;;;16.03;34.69;102135.28;2103736;28;47304;-59
2022/03/26 00:29:46;;;;;;;;;57.75;46.50;;;;;16.02;34.90;102130.84;2095003;28;47991;-60
2022/03/26 00:30:46;;;;;;;;;50.00;41.50;;;;;16.01;34.56;102128.19;2094864;28;47519;-61
2022/03/26 00:31:47;;;;;;;;;55.25;44.75;;;;;16.00;34.80;102129.09;2103295;28;47855;-60
2022/03/26 00:32:47;;;;;;;;;55.75;45.75;;;;;16.00;34.49;102135.31;2103592;28;47911;-60
2022/03/26 00:33:48;;;;;;;;;56.00;45.25;;;;;15.99;34.68;102128.22;2103273;28;47598;-61
2022/03/26 00:34:48;;;;;;;;;57.00;44.75;;;;;15.98;34.59;102134.47;2103624;28;47542;-61
2022/03/26 00:35:49;;;;;;;;;54.00;43.50;;;;;15.98;34.68;102130.91;2085677;28;47478;-61
2022/03/26 00:36:49;;;;;;;;;54.00;44.00;;;;;15.97;34.76;102129.16;2086004;28;45261;-59
2022/03/26 00:37:52;;;;;;;;;55.75;42.75;;;;;15.95;34.90;102136.34;2103597;28;47526;-59
2022/03/26 00:38:52;;;;;;;;;52.00;43.80;;;;;15.94;34.86;102131.91;2103345;28;47960;-60
2022/03/26 00:39:53;;;;;;;;;56.75;43.75;;;;;15.92;35.09;102129.28;2103359;28;47972;-62
2022/03/26 00:40:54;;;;;;;;;54.20;44.20;;;;;15.89;34.49;102129.34;2103449;28;47261;-60
2022/03/26 00:41:54;;;;;;;;;54.00;43.50;;;;;15.87;34.57;102128.47;2103368;28;48073;-61
2022/03/26 00:42:55;;;;;;;;;57.25;46.00;;;;;15.85;35.09;102135.66;2103480;28;47687;-61
2022/03/26 00:43:56;;;;;;;;;56.25;46.00;;;;;15.83;34.81;102133.00;2103410;28;47460;-60
2022/03/26 00:44:56;;;;;;;;;57.75;47.00;;;;;15.82;34.53;102127.69;2103137;28;47386;-60
2022/03/26 00:45:57;;;;;;;;;58.50;45.25;;;;;15.81;35.06;102132.16;2103563;28;48045;-62
2022/03/26 00:46:57;;;;;;;;;52.50;43.50;;;;;15.81;34.74;102131.28;2103390;28;47578;-58
2022/03/26 00:47:59;;;;;;;;;54.00;43.25;;;;;15.78;35.01;102126.88;2103760;28;47658;-61
2022/03/26 00:49:00;;;;;;;;;53.40;44.80;;;;;15.78;35.16;102128.69;2103318;28;47806;-59
2022/03/26 00:50:00;;;;;;;;;52.25;41.50;;;;;15.76;35.15;102128.72;2103546;28;48277;-58
2022/03/26 00:51:01;;;;;;;;;54.75;42.25;;;;;15.76;35.25;102125.16;2103701;28;47671;-60
2022/03/26 00:52:03;;;;;;;;;56.25;44.50;;;;;15.76;35.09;102130.50;2094530;28;47818;-61
2022/03/26 00:53:03;;;;;;;;;55.60;45.20;;;;;15.75;35.08;102129.63;2094747;28;47712;-60
2022/03/26 00:54:03;;;;;;;;;56.50;45.25;;;;;15.74;35.41;102126.97;2095148;28;47685;-61
2022/03/26 00:55:04;;;;;;;;;57.00;45.25;;;;;15.72;34.96;102126.13;2099952;28;47653;-60
2022/03/26 00:56:05;;;;;;;;;52.75;44.00;;;;;15.70;35.25;102119.91;2103306;28;47885;-61
2022/03/26 00:57:05;;;;;;;;;43.00;32.75;;;;;15.67;35.37;102128.91;2103336;28;47289;-60
2022/03/26 00:58:05;;;;;;;;;55.00;44.25;;;;;15.66;35.24;102123.59;2103580;28;47106;-60
2022/03/26 00:59:07;;;;;;;;;52.25;42.75;;;;;15.66;35.22;102124.47;2094327;28;47244;-60
2022/03/26 01:00:09;;;;;;;;;51.00;42.60;;;;;15.64;35.44;102128.97;2094475;28;47189;-62
2022/03/26 01:01:10;;;;;;;;;54.20;45.20;;;;;15.63;35.15;102126.31;2103456;28;47850;-60
2022/03/26 01:02:11;;;;;;;;;56.20;46.60;;;;;15.61;35.46;102129.00;2103657;28;47311;-60
2022/03/26 01:03:12;;;;;;;;;53.25;43.50;;;;;15.60;35.59;102125.44;2103537;28;48081;-61
2022/03/26 01:04:12;;;;;;;;;57.00;45.50;;;;;15.59;35.18;102128.13;2093356;28;47861;-60
2022/03/26 01:05:13;;;;;;;;;52.25;42.75;;;;;15.58;35.53;102127.25;2093812;28;47507;-61
2022/03/26 01:06:14;;;;;;;;;56.00;45.75;;;;;15.57;35.71;102125.47;2103493;28;47892;-60
2022/03/26 01:07:15;;;;;;;;;53.00;44.40;;;;;15.58;35.19;102126.38;2103308;28;47416;-60
2022/03/26 01:08:15;;;;;;;;;54.75;44.50;;;;;15.57;35.58;102124.59;2103741;28;47338;-60
2022/03/26 01:09:16;;;;;;;;;59.00;46.50;;;;;15.55;35.38;102121.97;2103378;28;47158;-61
2022/03/26 01:10:16;;;;;;;;;56.75;45.00;;;;;15.55;35.84;102123.75;2103390;28;47923;-60
2022/03/26 01:11:17;;;;;;;;;52.25;42.50;;;;;15.54;35.40;102124.66;2103504;28;47849;-61
2022/03/26 01:12:18;;;;;;;;;55.60;44.60;;;;;15.51;35.56;102122.94;2103285;28;48514;-60
2022/03/26 01:13:18;;;;;;;;;56.50;45.75;;;;;15.51;35.44;102130.09;2103407;28;48019;-58
2022/03/26 01:14:18;;;;;;;;;54.50;43.50;;;;;15.49;35.48;102129.22;2103514;28;47487;-61
2022/03/26 01:15:20;;;;;;;;;54.50;43.00;;;;;15.48;35.89;102122.97;2103500;28;46837;-59
2022/03/26 01:16:20;;;;;;;;;51.00;41.60;;;;;15.48;35.71;102124.78;2085129;28;47413;-60
2022/03/26 01:17:21;;;;;;;;;52.00;42.00;;;;;15.47;35.50;102125.69;2085710;28;47672;-62
2022/03/26 01:18:22;;;;;;;;;53.00;43.50;;;;;15.46;35.60;102124.81;2103629;28;47555;-60
2022/03/26 01:19:22;;;;;;;;;57.40;45.00;;;;;15.47;35.62;102123.00;2103412;27;47289;-61
2022/03/26 01:20:23;;;;;;;;;50.50;41.75;;;;;15.46;35.34;102123.94;2103451;28;47966;-61
2022/03/26 01:21:23;;;;;;;;;52.00;41.75;;;;;15.44;35.55;102120.41;2103706;28;47710;-61
2022/03/26 01:22:24;;;;;;;;;54.25;44.50;;;;;15.43;35.68;102121.31;2103874;28;47862;-62
2022/03/26 01:23:24;;;;;;;;;56.00;46.00;;;;;15.42;35.63;102120.44;2105140;28;47932;-61
2022/03/26 01:24:24;;;;;;;;;54.00;42.25;;;;;15.40;35.75;102116.03;2104884;28;47500;-62
2022/03/26 01:25:25;;;;;;;;;52.25;43.75;;;;;15.39;35.85;102117.84;2096237;28;48054;-61
2022/03/26 01:26:25;;;;;;;;;57.00;44.00;;;;;15.39;36.02;102119.63;2095958;28;47678;-60
2022/03/26 01:27:26;;;;;;;;;53.25;43.75;;;;;15.37;36.02;102119.63;2104964;28;47390;-61
2022/03/26 01:28:26;;;;;;;;;51.75;42.50;;;;;15.37;36.14;102119.63;2104814;28;47796;-61
2022/03/26 01:29:27;;;;;;;;;53.50;43.75;;;;;15.37;35.99;102121.41;2102737;27;47525;-62
2022/03/26 01:30:27;;;;;;;;;58.00;44.75;;;;;15.35;35.92;102115.22;2098913;28;47304;-60
2022/03/26 01:31:28;;;;;;;;;54.00;43.50;;;;;15.34;36.21;102118.81;2099246;28;47397;-61
2022/03/26 01:32:28;;;;;;;;;52.75;44.25;;;;;15.30;35.76;102110.84;2103379;27;47699;-61
2022/03/26 01:33:29;;;;;;;;;54.25;44.75;;;;;15.32;35.96;102113.50;2098146;28;47670;-62
2022/03/26 01:34:29;;;;;;;;;52.50;44.00;;;;;15.30;35.79;102109.97;2101811;28;47437;-59
2022/03/26 01:35:29;;;;;;;;;53.50;43.75;;;;;15.29;36.02;102117.13;2103458;28;47561;-61
2022/03/26 01:36:30;;;;;;;;;54.75;45.50;;;;;15.28;36.12;102109.13;2104130;27;47629;-60
2022/03/26 01:37:30;;;;;;;;;50.50;41.50;;;;;15.28;35.86;102111.81;2103461;28;46171;-59
2022/03/26 01:38:31;;;;;;;;;55.25;44.00;;;;;15.26;35.97;102113.63;2104933;28;47834;-61
2022/03/26 01:39:32;;;;;;;;;55.50;42.75;;;;;15.27;35.97;102110.03;2104856;28;47895;-61
2022/03/26 01:40:36;;;;;;;;;55.00;45.25;;;;;15.26;35.94;102113.63;2104731;28;47239;-60
2022/03/26 01:41:37;;;;;;;;;56.20;46.00;;;;;15.23;36.04;102111.88;2104971;28;47299;-60
2022/03/26 01:42:37;;;;;;;;;55.20;44.80;;;;;15.23;36.06;102116.34;2104698;28;47711;-61
2022/03/26 01:43:40;;;;;;;;;49.75;42.50;;;;;15.22;36.27;102111.91;2105055;28;47930;-60
2022/03/26 01:44:40;;;;;;;;;48.60;40.20;;;;;15.21;36.13;102107.47;2104873;28;47526;-60
2022/03/26 01:45:41;;;;;;;;;55.25;43.50;;;;;15.21;36.47;102103.00;2104761;28;47797;-60
2022/03/26 01:46:49;;;;;;;;;53.75;42.50;;;;;15.21;36.18;102112.81;2104851;28;47316;-60
2022/03/26 01:47:49;;;;;;;;;54.40;43.40;;;;;15.20;36.13;102105.69;2104959;28;48009;-60
2022/03/26 01:48:50;;;;;;;;;51.50;42.75;;;;;15.18;36.32;102103.06;2105062;28;47361;-61
2022/03/26 01:49:51;;;;;;;;;53.25;43.00;;;;;15.18;36.59;102104.84;2104724;28;47900;-61
2022/03/26 01:50:51;;;;;;;;;54.50;44.25;;;;;15.18;36.11;102107.53;2104550;28;47578;-61
2022/03/26 01:51:52;;;;;;;;;52.00;43.50;;;;;15.17;36.31;102100.41;2104900;28;47827;-59
2022/03/26 01:52:52;;;;;;;;;52.75;43.75;;;;;15.16;36.38;102102.22;2104885;28;47459;-61
2022/03/26 01:53:53;;;;;;;;;51.25;43.25;;;;;15.15;36.13;102097.78;2104650;28;48401;-63
2022/03/26 01:54:54;;;;;;;;;51.25;42.50;;;;;15.14;36.43;102105.84;2104332;28;47726;-62
2022/03/26 01:55:54;;;;;;;;;53.50;43.00;;;;;15.13;36.21;102104.94;2104918;28;47473;-61
2022/03/26 01:56:56;;;;;;;;;50.25;41.75;;;;;15.13;36.61;102098.72;2104546;28;47544;-60
2022/03/26 01:57:56;;;;;;;;;57.60;45.40;;;;;15.11;36.40;102092.50;2104705;28;47924;-61
2022/03/26 01:58:58;;;;;;;;;52.25;42.50;;;;;15.10;36.40;102094.28;2104953;28;48093;-62
2022/03/26 02:00:00;;;;;;;;;49.60;42.00;;;;;15.09;36.80;102102.34;2104768;28;47750;-60
2022/03/26 02:01:00;;;;;;;;;55.00;45.00;;;;;15.08;36.62;102098.78;2104433;28;48061;-60
2022/03/26 02:02:00;;;;;;;;;54.50;43.75;;;;;15.07;36.84;102097.03;2104689;28;47837;-61
2022/03/26 02:03:01;;;;;;;;;54.00;43.50;;;;;15.08;36.89;102101.47;2104664;28;47791;-61
2022/03/26 02:04:06;;;;;;;;;55.00;43.20;;;;;15.08;36.47;102096.13;2086578;28;47695;-61
2022/03/26 02:05:07;;;;;;;;;56.40;45.40;;;;;15.07;36.60;102094.34;2087742;28;47568;-60
2022/03/26 02:06:07;;;;;;;;;50.00;42.00;;;;;15.07;36.68;102097.03;2078067;28;48196;-60
2022/03/26 02:07:07;;;;;;;;;54.50;42.75;;;;;15.07;36.85;102090.78;2078405;28;47436;-61
2022/03/26 02:08:08;;;;;;;;;51.00;41.50;;;;;15.05;36.54;102093.50;2104341;28;47311;-60
2022/03/26 02:09:12;;;;;;;;;55.00;44.50;;;;;15.04;36.74;102099.75;2103728;28;47930;-60
2022/03/26 02:10:15;;;;;;;;;52.00;42.60;;;;;15.04;37.01;102093.53;2104400;28;47540;-61
2022/03/26 02:11:15;;;;;;;;;53.60;44.80;;;;;15.02;36.91;102091.78;2104425;28;47577;-61
2022/03/26 02:12:22;;;;;;;;;54.50;43.00;;;;;15.00;36.86;102092.72;2104540;28;47448;-61
2022/03/26 02:13:23;;;;;;;;;51.60;43.20;;;;;14.99;36.91;102097.19;2102020;28;48011;-61
2022/03/26 02:14:24;;;;;;;;;53.75;44.00;;;;;14.98;36.86;102095.38;2104419;28;47735;-61
2022/03/26 02:15:26;;;;;;;;;51.40;42.00;;;;;14.97;36.88;102090.06;2104489;28;47815;-62
2022/03/26 02:16:26;;;;;;;;;54.00;44.00;;;;;14.95;36.89;102098.13;2104348;28;47715;-60
2022/03/26 02:17:27;;;;;;;;;56.50;45.00;;;;;14.94;36.59;102087.47;2104501;28;47448;-61
2022/03/26 02:18:27;;;;;;;;;54.00;44.00;;;;;14.93;37.04;102085.72;2104505;28;47746;-61
2022/03/26 02:19:28;;;;;;;;;57.00;45.75;;;;;14.91;36.95;102090.19;2104315;28;45787;-60
2022/03/26 02:20:28;;;;;;;;;53.75;42.50;;;;;14.88;36.91;102091.16;2104643;28;48036;-61
2022/03/26 02:21:29;;;;;;;;;58.00;46.50;;;;;14.86;36.91;102084.03;2103660;28;47802;-62
2022/03/26 02:22:30;;;;;;;;;54.80;43.60;;;;;14.86;37.20;102092.94;2104586;28;47713;-61
2022/03/26 02:23:30;;;;;;;;;59.50;47.25;;;;;14.83;36.81;102087.66;2104332;28;47408;-59
2022/03/26 02:24:30;;;;;;;;;52.25;43.25;;;;;14.82;37.11;102088.56;2104607;28;47456;-60
2022/03/26 02:25:31;;;;;;;;;56.50;44.25;;;;;14.82;37.24;102085.88;2104263;28;47370;-60
2022/03/26 02:26:32;;;;;;;;;56.00;46.25;;;;;14.81;36.96;102080.56;2105709;27;47685;-60
2022/03/26 02:27:33;;;;;;;;;55.40;45.80;;;;;14.80;37.18;102092.19;2104217;27;48429;-61
2022/03/26 02:28:34;;;;;;;;;56.20;44.60;;;;;14.78;37.29;102094.00;2104274;28;47439;-62
2022/03/26 02:29:34;;;;;;;;;55.25;43.75;;;;;14.76;37.31;102079.78;2104460;28;47689;-61
2022/03/26 02:30:35;;;;;;;;;57.00;45.00;;;;;14.77;37.12;102094.91;2104268;28;48158;-61
2022/03/26 02:31:37;;;;;;;;;58.25;46.00;;;;;14.75;36.99;102092.25;2104303;28;47621;-60
2022/03/26 02:32:37;;;;;;;;;56.80;45.40;;;;;14.75;37.48;102091.38;2104249;28;47605;-57
2022/03/26 02:33:38;;;;;;;;;54.00;43.25;;;;;14.73;37.47;102080.69;2104266;28;48058;-61
2022/03/26 02:34:39;;;;;;;;;54.00;45.00;;;;;14.73;37.41;102088.72;2086091;28;47490;-62
2022/03/26 02:35:39;;;;;;;;;56.75;46.00;;;;;14.72;37.04;102082.47;2086398;28;47518;-59
2022/03/26 02:36:39;;;;;;;;;56.25;44.00;;;;;14.73;37.04;102091.38;2104353;28;47955;-61
2022/03/26 02:37:40;;;;;;;;;57.50;46.50;;;;;14.69;37.28;102087.88;2104491;28;47866;-60
2022/03/26 02:38:41;;;;;;;;;58.25;45.75;;;;;14.70;37.33;102078.97;2104487;28;48431;-60
2022/03/26 02:39:42;;;;;;;;;56.20;45.20;;;;;14.69;37.49;102079.00;2104148;28;47784;-57
2022/03/26 02:40:42;;;;;;;;;54.00;44.50;;;;;14.68;37.30;102083.47;2104460;28;47387;-60
2022/03/26 02:41:43;;;;;;;;;49.75;40.00;;;;;14.69;37.55;102081.66;2104242;28;48176;-60
2022/03/26 02:42:43;;;;;;;;;56.25;45.00;;;;;14.68;37.31;102074.56;2104369;28;47737;-61
2022/03/26 02:43:44;;;;;;;;;53.50;42.50;;;;;14.66;37.46;102079.94;2104458;28;47702;-60
2022/03/26 02:44:44;;;;;;;;;51.75;43.75;;;;;14.67;37.53;102078.16;2104683;28;47941;-59
2022/03/26 02:45:45;;;;;;;;;55.25;45.75;;;;;14.66;37.63;102074.59;2104726;28;45843;-59
2022/03/26 02:46:46;;;;;;;;;58.25;46.00;;;;;14.67;37.63;102079.03;2104356;28;47729;-59
2022/03/26 02:47:48;;;;;;;;;54.60;44.60;;;;;14.67;37.17;102081.69;2104468;28;47676;-59
2022/03/26 02:48:49;;;;;;;;;55.80;44.00;;;;;14.66;37.39;102082.59;2104353;28;47296;-60
2022/03/26 02:49:50;;;;;;;;;61.80;48.80;;;;;14.67;37.63;102083.47;2103886;28;47854;-62
2022/03/26 02:50:51;;;;;;;;;59.80;47.00;;;;;14.66;37.38;102085.28;2104755;28;45704;-58
2022/03/26 02:51:52;;;;;;;;;53.50;44.50;;;;;14.65;37.64;102075.50;2103781;28;47884;-59
2022/03/26 02:52:52;;;;;;;;;54.50;44.75;;;;;14.64;37.37;102079.09;2104605;28;47407;-59
2022/03/26 02:53:52;;;;;;;;;52.50;43.75;;;;;14.64;37.78;102078.19;2104548;28;47973;-61
2022/03/26 02:54:53;;;;;;;;;54.25;44.00;;;;;14.63;37.61;102080.00;2104434;28;47987;-60
2022/03/26 02:55:53;;;;;;;;;60.25;46.25;;;;;14.61;37.46;102081.81;2104496;28;47665;-60
2022/03/26 02:56:54;;;;;;;;;58.50;46.75;;;;;14.61;37.70;102080.91;2104333;28;46486;-63
2022/03/26 02:57:54;;;;;;;;;58.50;47.50;;;;;14.59;37.46;102080.03;2104190;28;48268;-63
2022/03/26 02:58:55;;;;;;;;;57.50;44.25;;;;;14.57;37.54;102082.75;2104350;28;47780;-60
2022/03/26 02:59:55;;;;;;;;;52.50;41.25;;;;;14.56;37.82;102080.97;2104348;28;47238;-58
2022/03/26 03:00:57;;;;;;;;;58.25;46.75;;;;;14.54;37.74;102079.25;2096450;28;47576;-62
2022/03/26 03:01:57;;;;;;;;;54.00;44.60;;;;;14.54;37.73;102080.13;2102192;28;47517;-62
2022/03/26 03:02:58;;;;;;;;;56.25;45.50;;;;;14.52;37.51;102073.06;2104224;28;47895;-62
2022/03/26 03:03:58;;;;;;;;;52.25;43.75;;;;;14.50;38.38;102078.44;2086221;28;47496;-62
2022/03/26 03:05:00;;;;;;;;;53.60;44.60;;;;;14.49;37.61;102071.31;2086257;28;47887;-62
2022/03/26 03:06:00;;;;;;;;;56.00;44.20;;;;;14.50;37.82;102077.56;2104402;28;48059;-60
2022/03/26 03:07:01;;;;;;;;;57.25;44.50;;;;;14.48;37.75;102074.88;2104027;28;47215;-62
2022/03/26 03:08:02;;;;;;;;;57.60;46.20;;;;;14.47;37.65;102075.78;2067302;28;47507;-62
2022/03/26 03:09:05;;;;;;;;;60.25;47.00;;;;;14.47;37.95;102072.22;2078416;28;47285;-61
2022/03/26 03:10:05;;;;;;;;;56.60;46.20;;;;;14.46;37.88;102074.03;2104326;28;48181;-60
2022/03/26 03:11:08;;;;;;;;;56.75;46.00;;;;;14.45;37.87;102072.25;2104287;28;47513;-61
2022/03/26 03:12:09;;;;;;;;;57.20;46.80;;;;;14.44;37.84;102078.50;2104547;28;47650;-60
2022/03/26 03:13:10;;;;;;;;;55.00;44.80;;;;;14.43;38.00;102072.25;2103978;28;47550;-62
2022/03/26 03:14:11;;;;;;;;;52.20;43.20;;;;;14.42;38.09;102075.84;2104187;28;47672;-61
2022/03/26 03:15:13;;;;;;;;;57.20;45.80;;;;;14.43;37.97;102079.38;2095811;28;47471;-61
2022/03/26 03:16:13;;;;;;;;;57.40;44.00;;;;;14.41;37.98;102075.88;2099384;28;47543;-58
2022/03/26 03:17:13;;;;;;;;;58.00;46.25;;;;;14.41;37.86;102071.41;2104071;28;47446;-60
2022/03/26 03:18:14;;;;;;;;;49.75;41.25;;;;;14.41;37.84;102065.19;2103764;28;47406;-60
2022/03/26 03:19:15;;;;;;;;;54.00;44.25;;;;;14.39;38.03;102073.22;2104356;28;48015;-62
2022/03/26 03:20:16;;;;;;;;;52.75;42.25;;;;;14.37;37.89;102067.03;2104482;28;47969;-60
2022/03/26 03:21:17;;;;;;;;;56.20;45.40;;;;;14.38;38.24;102070.59;2104334;28;48278;-60
2022/03/26 03:22:17;;;;;;;;;60.00;47.20;;;;;14.37;38.03;102075.03;2104083;28;47679;-60
2022/03/26 03:23:17;;;;;;;;;53.50;44.00;;;;;14.37;38.11;102069.69;2104169;28;47586;-61
2022/03/26 03:24:18;;;;;;;;;57.75;46.50;;;;;14.38;38.13;102070.59;2104041;28;48090;-61
2022/03/26 03:25:18;;;;;;;;;54.25;44.50;;;;;14.37;38.03;102072.38;2104015;28;47463;-60
2022/03/26 03:26:19;;;;;;;;;53.25;44.50;;;;;14.37;38.16;102074.16;2104004;28;47459;-61
2022/03/26 03:27:19;;;;;;;;;59.50;47.50;;;;;14.36;38.08;102075.94;2103987;28;47606;-60
2022/03/26 03:28:19;;;;;;;;;60.00;44.50;;;;;14.36;38.17;102075.94;2104125;28;47944;-59
2022/03/26 03:29:20;;;;;;;;;56.00;44.50;;;;;14.37;38.01;102074.16;2104067;28;47661;-60
2022/03/26 03:30:20;;;;;;;;;57.25;46.75;;;;;14.35;38.13;102071.47;2101578;28;48040;-58
2022/03/26 03:31:20;;;;;;;;;54.75;45.00;;;;;14.35;38.07;102067.94;2103593;28;47591;-61
2022/03/26 03:32:21;;;;;;;;;52.50;42.50;;;;;14.35;37.97;102067.94;2103735;28;47759;-62
2022/03/26 03:33:21;;;;;;;;;56.00;45.75;;;;;14.32;37.97;102071.53;2103588;28;47742;-59
2022/03/26 03:34:22;;;;;;;;;64.50;51.75;;;;;14.31;38.26;102071.56;2104258;28;47787;-61
2022/03/26 03:35:23;;;;;;;;;68.75;56.75;;;;;14.29;38.04;102070.72;2104182;28;48002;-62
2022/03/26 03:36:23;;;;;;;;;121.00;113.00;;;;;14.28;38.23;102059.16;2104392;28;48028;-59
2022/03/26 03:37:24;;;;;;;;;129.50;119.50;;;;;14.27;38.24;102067.19;2104275;28;47520;-61
2022/03/26 03:38:25;;;;;;;;;122.67;116.67;;;;;14.26;38.59;102068.97;2104022;28;48065;-61
2022/03/26 03:39:25;;;;;;;;;120.00;110.33;;;;;14.25;38.13;102069.00;2094166;28;48097;-57
2022/03/26 03:40:26;;;;;;;;;111.33;102.00;;;;;14.24;38.22;102069.91;2094428;28;47521;-61
2022/03/26 03:41:26;;;;;;;;;101.67;98.00;;;;;14.23;38.36;102069.03;2101094;28;47470;-60
2022/03/26 03:42:27;;;;;;;;;93.00;88.67;;;;;14.23;38.65;102073.47;2103988;28;47503;-61
2022/03/26 03:43:27;;;;;;;;;84.67;78.67;;;;;14.22;38.37;102072.56;2102832;27;47829;-61
2022/03/26 03:44:28;;;;;;;;;76.25;68.75;;;;;14.23;38.58;102076.13;2103319;27;47604;-60
2022/03/26 03:45:28;;;;;;;;;62.75;50.25;;;;;14.23;38.62;102081.47;2102459;27;45556;-60
2022/03/26 03:46:30;;;;;;;;;59.50;47.75;;;;;14.23;38.43;102065.44;2103271;28;47585;-61
2022/03/26 03:47:31;;;;;;;;;65.60;52.60;;;;;14.21;38.55;102068.16;2103419;28;48033;-62
2022/03/26 03:48:31;;;;;;;;;65.25;51.50;;;;;14.20;38.33;102073.50;2103856;28;47816;-61
2022/03/26 03:49:32;;;;;;;;;61.25;49.75;;;;;14.19;38.54;102075.31;2104134;28;47689;-61
2022/03/26 03:50:32;;;;;;;;;67.25;51.75;;;;;14.18;38.61;102070.88;2103773;28;47300;-60
2022/03/26 03:51:33;;;;;;;;;61.50;50.50;;;;;14.19;38.39;102072.63;2103590;28;47341;-61
2022/03/26 03:52:33;;;;;;;;;59.50;47.25;;;;;14.19;38.53;102072.63;2103846;28;47557;-60
2022/03/26 03:53:34;;;;;;;;;58.00;46.75;;;;;14.20;38.54;102073.50;2103651;28;48064;-62
2022/03/26 03:54:34;;;;;;;;;55.00;46.00;;;;;14.20;38.64;102073.50;2103993;28;47321;-60
2022/03/26 03:55:35;;;;;;;;;61.75;48.50;;;;;14.21;38.76;102075.28;2103462;28;47223;-60
2022/03/26 03:56:36;;;;;;;;;61.75;49.25;;;;;14.20;38.50;102082.41;2103881;28;47511;-61
2022/03/26 03:57:41;;;;;;;;;61.25;46.75;;;;;14.19;38.73;102080.66;2103838;28;47421;-62
2022/03/26 03:58:41;;;;;;;;;60.80;49.00;;;;;14.19;38.45;102082.44;2103838;28;47425;-61
2022/03/26 03:59:42;;;;;;;;;61.25;48.00;;;;;14.18;38.60;102080.66;2103937;28;47990;-61
2022/03/26 04:00:42;;;;;;;;;57.75;47.50;;;;;14.17;38.67;102081.56;2104097;28;47821;-59
2022/03/26 04:01:43;;;;;;;;;59.75;47.50;;;;;14.14;38.75;102080.72;2104031;28;47987;-62
2022/03/26 04:02:43;;;;;;;;;58.50;48.25;;;;;14.14;38.52;102074.50;2085978;28;46681;-58
2022/03/26 04:03:44;;;;;;;;;57.50;47.00;;;;;14.13;38.65;102078.09;2085745;28;47704;-61
2022/03/26 04:04:45;;;;;;;;;56.75;47.00;;;;;14.12;38.65;102081.66;2095015;28;47539;-61
2022/03/26 04:05:45;;;;;;;;;57.25;46.75;;;;;14.10;38.69;102079.00;2095058;28;47608;-59
2022/03/26 04:06:45;;;;;;;;;56.50;46.00;;;;;14.10;38.38;102088.78;2103826;28;47398;-60
2022/03/26 04:07:46;;;;;;;;;59.75;47.75;;;;;14.11;38.45;102085.22;2103859;28;47564;-62
2022/03/26 04:08:48;;;;;;;;;57.50;47.00;;;;;14.09;38.68;102087.91;2103630;28;47364;-61
2022/03/26 04:09:48;;;;;;;;;57.60;46.00;;;;;14.08;38.69;102079.91;2085841;28;48229;-61
2022/03/26 04:10:48;;;;;;;;;59.00;48.00;;;;;14.06;38.43;102079.06;2086281;28;45712;-59
2022/03/26 04:11:49;;;;;;;;;57.00;46.25;;;;;14.05;38.95;102087.97;2103056;28;47631;-60
2022/03/26 04:12:50;;;;;;;;;55.75;46.00;;;;;14.04;38.86;102086.22;2103132;28;47551;-63
2022/03/26 04:13:53;;;;;;;;;55.00;44.75;;;;;14.02;38.81;102088.03;2103717;28;47875;-62
2022/03/26 04:14:54;;;;;;;;;56.80;46.00;;;;;14.01;38.90;102087.16;2103536;28;47906;-59
2022/03/26 04:15:55;;;;;;;;;55.25;44.50;;;;;13.99;38.85;102082.75;2103607;28;47984;-58
2022/03/26 04:16:56;;;;;;;;;58.80;46.60;;;;;13.98;38.64;102081.84;2103826;28;48111;-60
2022/03/26 04:17:56;;;;;;;;;54.50;45.00;;;;;13.97;38.81;102084.53;2103970;28;47786;-61
2022/03/26 04:18:58;;;;;;;;;57.50;46.25;;;;;13.96;38.77;102080.97;2103733;28;47355;-62
2022/03/26 04:20:00;;;;;;;;;55.40;46.00;;;;;13.96;38.91;102094.31;2104018;28;47735;-59
2022/03/26 04:21:01;;;;;;;;;57.20;45.00;;;;;13.95;39.05;102089.00;2085830;28;48145;-60
2022/03/26 04:22:01;;;;;;;;;57.25;46.00;;;;;13.93;39.08;102089.03;2086048;28;47838;-63
2022/03/26 04:23:02;;;;;;;;;56.75;45.00;;;;;13.92;38.97;102089.94;2103933;28;47415;-60
2022/03/26 04:24:02;;;;;;;;;57.25;45.25;;;;;13.92;38.95;102089.94;2103706;28;47989;-60
2022/03/26 04:25:05;;;;;;;;;55.75;46.00;;;;;13.94;39.32;102089.91;2103809;28;47710;-61
2022/03/26 04:26:06;;;;;;;;;58.80;45.80;;;;;13.93;39.06;102088.16;2077403;28;46637;-61
2022/03/26 04:27:07;;;;;;;;;56.20;44.60;;;;;13.92;39.01;102087.25;2078052;28;47661;-61
2022/03/26 04:28:07;;;;;;;;;56.25;46.25;;;;;13.92;38.88;102081.94;2103827;28;47469;-61
2022/03/26 04:29:07;;;;;;;;;54.50;42.75;;;;;13.91;39.14;102090.84;2100473;28;46686;-62
2022/03/26 04:30:10;;;;;;;;;58.25;44.75;;;;;13.90;39.00;102088.19;2102887;28;47399;-61
2022/03/26 04:31:11;;;;;;;;;63.40;49.00;;;;;13.89;38.97;102087.31;2104014;28;47698;-61
2022/03/26 04:32:11;;;;;;;;;56.25;46.50;;;;;13.88;39.19;102093.56;2103615;28;47601;-61
2022/03/26 04:33:12;;;;;;;;;56.75;45.50;;;;;13.88;39.21;102085.56;2103844;28;47060;-63
2022/03/26 04:34:13;;;;;;;;;52.25;43.50;;;;;13.89;39.09;102094.44;2106375;27;47361;-61
2022/03/26 04:35:14;;;;;;;;;54.20;44.80;;;;;13.88;39.04;102085.56;2112243;27;47998;-63
2022/03/26 04:36:14;;;;;;;;;53.75;44.00;;;;;13.88;39.03;102095.34;2105797;27;47765;-62